Time;durP1;ratioP1;P1;durP2;ratioP2;P2;SDS_P1;SDS_P2;PMS_P1;PMS_P2;Temp;Humidity;BMP_temperature;BMP_pressure;BME280_temperature;BME280_humidity;BME280_pressure;Samples;Min_cycle;Max_cycle;Signal;HPM_P1;HPM_P2
2021/09/21 00:01:01;;;;;;;2.95;2.45;;;;;;;17.69;38.70;99109.88;5075550;28;20050;-68
2021/09/21 00:03:27;;;;;;;3.33;2.47;;;;;;;17.73;38.67;99118.28;5042419;28;20040;-68
2021/09/21 00:05:53;;;;;;;3.50;2.45;;;;;;;17.91;38.23;99115.72;5092152;28;20047;-68
2021/09/21 00:08:18;;;;;;;3.60;2.53;;;;;;;17.75;38.73;99108.16;5058549;28;20416;-67
2021/09/21 00:10:44;;;;;;;2.95;2.28;;;;;;;17.58;39.04;99099.81;5075266;28;20534;-67
2021/09/21 00:13:10;;;;;;;2.75;2.33;;;;;;;17.58;39.13;99113.22;5041714;28;20512;-68
2021/09/21 00:15:36;;;;;;;2.80;2.25;;;;;;;17.81;39.03;99100.06;5058826;28;20040;-67
2021/09/21 00:18:02;;;;;;;9.05;2.90;;;;;;;17.15;40.10;99101.44;5075046;28;20059;-68
2021/09/21 00:20:28;;;;;;;4.72;2.60;;;;;;;17.57;39.13;99091.97;5092395;28;20058;-68
2021/09/21 00:22:53;;;;;;;3.75;2.60;;;;;;;17.26;39.71;99099.94;5041903;28;20040;-67
2021/09/21 00:25:19;;;;;;;4.97;2.65;;;;;;;17.64;39.05;99087.38;5041639;28;20071;-67
2021/09/21 00:27:45;;;;;;;2.47;2.28;;;;;;;17.76;38.67;99091.84;5091714;28;20093;-67
2021/09/21 00:30:20;;;;;;;3.50;2.17;;;;;;;17.68;38.96;99092.09;5076054;28;20078;-67
2021/09/21 00:32:49;;;;;;;2.42;2.22;;;;;;;17.49;38.79;99039.34;5074949;28;20079;-65
2021/09/21 00:35:14;;;;;;;3.65;2.10;;;;;;;17.62;38.92;99084.09;5091320;28;20461;-67
2021/09/21 00:37:40;;;;;;;2.58;2.17;;;;;;;17.66;38.92;99064.66;5057973;28;20043;-67
2021/09/21 00:40:07;;;;;;;2.67;2.15;;;;;;;17.72;38.91;99079.88;5057782;28;20083;-67
2021/09/21 00:42:33;;;;;;;2.20;1.98;;;;;;;17.33;39.46;99077.41;5091338;28;20578;-68
2021/09/21 00:45:05;;;;;;;4.03;2.30;;;;;;;18.17;38.73;99067.94;5074316;28;20074;-68
2021/09/21 00:47:31;;;;;;;3.90;2.13;;;;;;;17.83;38.62;99070.31;5091229;28;20078;-68
2021/09/21 00:49:57;;;;;;;3.17;2.28;;;;;;;17.95;38.46;99084.69;5057797;28;20583;-67
2021/09/21 00:52:23;;;;;;;4.63;2.25;;;;;;;18.08;38.43;99076.53;5057797;28;20130;-67
2021/09/21 00:54:49;;;;;;;2.40;2.10;;;;;;;17.23;39.98;99068.16;5041007;28;20044;-67
2021/09/21 00:57:15;;;;;;;5.55;2.30;;;;;;;17.45;39.61;99077.59;5074069;28;20093;-67
2021/09/21 00:59:41;;;;;;;3.38;2.40;;;;;;;17.39;39.81;99068.47;5057584;28;20040;-67
2021/09/21 01:02:07;;;;;;;3.47;2.28;;;;;;;17.95;38.88;99065.88;5040785;28;20396;-67
2021/09/21 01:04:35;;;;;;;2.80;2.28;;;;;;;17.95;38.25;99057.81;5057502;28;20078;-68
2021/09/21 01:07:01;;;;;;;4.65;2.42;;;;;;;16.97;39.87;99079.00;5057290;28;20059;-68
2021/09/21 01:09:28;;;;;;;6.53;2.30;;;;;;;17.49;39.43;99068.06;5040884;28;20492;-67
2021/09/21 01:11:56;;;;;;;4.07;2.13;;;;;;;17.83;39.09;99054.19;5090693;28;20479;-69
2021/09/21 01:14:22;;;;;;;6.45;2.35;;;;;;;17.27;39.95;99077.44;5090758;28;20553;-68
2021/09/21 01:16:49;;;;;;;7.20;2.13;;;;;;;17.38;40.02;99063.34;5073338;28;20048;-67
2021/09/21 01:19:16;;;;;;;4.57;2.03;;;;;;;17.34;40.02;99046.84;5073608;28;20040;-67
2021/09/21 01:21:42;;;;;;;3.90;2.20;;;;;;;17.58;39.42;99053.31;5057228;28;20173;-67
2021/09/21 01:24:09;;;;;;;3.10;2.33;;;;;;;17.91;39.17;99068.16;5057101;28;20138;-67
2021/09/21 01:26:35;;;;;;;3.60;2.20;;;;;;;17.93;39.01;99076.00;5057408;28;20048;-68
2021/09/21 01:29:02;;;;;;;3.50;2.30;;;;;;;17.64;39.09;99074.78;5057136;28;20071;-67
2021/09/21 01:31:28;;;;;;;3.50;2.10;;;;;;;17.71;38.72;99055.94;5073942;28;20533;-67
2021/09/21 01:33:54;;;;;;;5.13;2.08;;;;;;;17.80;39.35;99062.69;5056877;28;20085;-66
2021/09/21 01:36:23;;;;;;;4.45;2.42;;;;;;;17.66;39.69;99066.50;5073651;28;20084;-67
2021/09/21 01:38:49;;;;;;;2.20;2.00;;;;;;;17.94;39.24;99072.28;5090380;28;20487;-67
2021/09/21 01:41:15;;;;;;;4.30;2.15;;;;;;;17.77;38.98;99071.19;5073385;28;20051;-66
2021/09/21 01:43:43;;;;;;;7.32;2.13;;;;;;;18.02;38.74;99056.72;5090330;28;20039;-67
2021/09/21 01:46:13;;;;;;;2.60;2.38;;;;;;;18.24;38.75;99066.03;5056757;28;20105;-67
2021/09/21 01:48:38;;;;;;;3.15;2.15;;;;;;;17.81;38.73;99064.31;5040278;28;20039;-66
2021/09/21 01:51:10;;;;;;;2.17;1.90;;;;;;;17.87;38.81;99060.75;5090136;28;20059;-67
2021/09/21 01:54:47;;;;;;;6.07;2.53;;;;;;;17.98;38.46;99041.25;5090259;28;20035;-66
2021/09/21 01:59:14;;;;;;;2.97;2.13;;;;;;;18.02;38.27;99042.47;5058855;28;20044;-66
2021/09/21 02:01:40;;;;;;;3.70;2.20;;;;;;;17.90;38.75;99052.25;5039948;28;20070;-67
2021/09/21 02:04:08;;;;;;;2.33;2.13;;;;;;;18.10;38.33;99044.84;5039884;28;20036;-66
2021/09/21 02:06:39;;;;;;;2.65;2.38;;;;;;;18.26;38.25;99049.69;5040082;28;20051;-67
2021/09/21 02:09:08;;;;;;;2.63;2.42;;;;;;;17.91;38.72;99051.25;5089940;28;20063;-66
2021/09/21 02:11:34;;;;;;;3.40;2.65;;;;;;;17.82;39.55;99049.88;5089939;28;20044;-67
2021/09/21 02:14:01;;;;;;;2.40;2.20;;;;;;;17.95;38.80;99039.84;5089870;28;20074;-66
2021/09/21 02:16:30;;;;;;;2.92;2.63;;;;;;;18.22;38.66;99038.53;5072972;28;20044;-67
2021/09/21 02:18:56;;;;;;;3.50;2.70;;;;;;;18.00;38.77;99055.28;5073100;28;20047;-67
2021/09/21 02:21:22;;;;;;;3.85;2.80;;;;;;;17.50;39.74;99034.78;5089723;28;20140;-67
2021/09/21 02:23:53;;;;;;;4.05;2.80;;;;;;;18.42;38.53;99038.38;5039780;28;20130;-67
2021/09/21 02:26:19;;;;;;;3.58;3.05;;;;;;;18.16;38.49;99041.28;5089839;28;20048;-67
2021/09/21 02:28:45;;;;;;;4.75;2.70;;;;;;;18.43;38.22;99043.53;5058328;28;20047;-67
2021/09/21 02:31:11;;;;;;;3.50;2.80;;;;;;;17.92;38.31;99040.28;5077038;28;20044;-67
2021/09/21 02:33:37;;;;;;;2.60;2.38;;;;;;;17.52;39.11;99011.22;5076985;28;20084;-66
2021/09/21 02:36:05;;;;;;;4.47;2.28;;;;;;;18.18;38.73;99033.84;5077193;28;20074;-67
2021/09/21 02:38:35;;;;;;;5.55;2.75;;;;;;;18.14;38.39;99041.50;5060606;28;20097;-67
2021/09/21 02:41:01;;;;;;;3.33;2.80;;;;;;;18.03;38.78;99028.81;5060243;28;20065;-67
2021/09/21 02:43:27;;;;;;;2.90;2.50;;;;;;;17.88;38.68;99038.25;5059480;28;20040;-67
2021/09/21 02:45:53;;;;;;;4.07;2.63;;;;;;;18.00;39.02;99023.06;5059676;28;20093;-67
2021/09/21 02:48:19;;;;;;;2.53;2.28;;;;;;;17.99;38.83;99032.16;5042921;28;20134;-66
2021/09/21 02:50:44;;;;;;;6.72;2.40;;;;;;;18.05;38.96;99029.41;5059717;28;20074;-67
2021/09/21 02:53:11;;;;;;;4.35;2.55;;;;;;;17.91;39.20;99014.44;5076076;28;20056;-67
2021/09/21 02:55:37;;;;;;;6.53;2.40;;;;;;;18.02;38.95;99027.16;5058921;28;20123;-68
2021/09/21 02:58:03;;;;;;;2.83;2.58;;;;;;;17.88;39.18;99006.00;5058323;28;20571;-68
2021/09/21 03:00:30;;;;;;;2.53;2.20;;;;;;;17.84;39.27;99028.97;5075093;28;20078;-68
2021/09/21 03:03:01;;;;;;;5.00;2.58;;;;;;;17.98;38.91;99025.97;5058391;28;20075;-68
2021/09/21 03:05:30;;;;;;;3.47;2.53;;;;;;;17.81;38.87;99016.81;5091524;28;20043;-67
2021/09/21 03:08:31;;;;;;;2.60;2.40;;;;;;;17.67;39.36;99004.50;5058130;28;20040;-68
2021/09/21 03:18:42;;;;;;;8.07;2.47;;;;;;;17.55;39.43;99014.31;5061821;28;20396;-67
2021/09/21 03:21:08;;;;;;;4.00;2.50;;;;;;;17.61;39.82;99004.56;5059030;28;20094;-67
2021/09/21 03:23:34;;;;;;;5.40;2.50;;;;;;;17.27;40.71;99002.28;5042793;28;20093;-67
2021/09/21 03:26:00;;;;;;;4.13;2.40;;;;;;;17.68;39.51;99002.66;5042374;28;20071;-67
2021/09/21 03:28:25;;;;;;;6.80;2.42;;;;;;;17.53;40.18;98997.59;5075747;28;20040;-66
2021/09/21 03:30:51;;;;;;;4.10;2.47;;;;;;;17.73;39.81;98994.75;5058792;28;20047;-67
2021/09/21 03:33:17;;;;;;;4.25;2.10;;;;;;;17.73;39.75;98995.56;5058852;28;20048;-67
2021/09/21 03:35:43;;;;;;;4.80;2.33;;;;;;;17.88;39.44;98992.56;5059060;28;20047;-66
2021/09/21 03:38:09;;;;;;;2.25;2.05;;;;;;;18.00;39.34;99002.38;5042220;28;20421;-67
2021/09/21 03:40:35;;;;;;;3.65;2.10;;;;;;;17.94;39.11;98987.13;5074989;28;20048;-67
2021/09/21 03:43:01;;;;;;;3.00;2.30;;;;;;;18.04;39.18;98995.50;5041961;28;20040;-67
2021/09/21 03:45:27;;;;;;;2.53;2.33;;;;;;;17.95;39.29;99006.75;5075271;28;20044;-68
2021/09/21 03:47:54;;;;;;;4.88;2.50;;;;;;;17.96;39.62;98998.47;5075430;28;20052;-67
2021/09/21 03:50:20;;;;;;;5.75;2.50;;;;;;;18.02;39.55;99002.16;5075126;28;20051;-68
2021/09/21 03:52:46;;;;;;;5.40;2.58;;;;;;;18.10;38.95;99012.59;5091972;28;20052;-67
2021/09/21 03:55:12;;;;;;;3.75;2.67;;;;;;;17.55;39.73;99003.56;5041809;28;20046;-68
2021/09/21 03:57:38;;;;;;;4.85;2.90;;;;;;;17.66;39.74;99004.72;5075682;28;20500;-67
2021/09/21 04:00:05;;;;;;;8.38;2.50;;;;;;;18.20;39.52;99007.56;5093226;28;20051;-67
2021/09/21 04:02:37;;;;;;;4.03;2.50;;;;;;;17.29;41.26;98984.94;5076454;28;20078;-75
2021/09/21 04:05:04;;;;;;;4.95;3.00;;;;;;;17.74;40.77;99001.78;5074931;28;20040;-74
2021/09/21 04:07:30;;;;;;;5.18;2.88;;;;;;;17.75;40.31;98998.03;5081166;28;20132;-76
2021/09/21 04:09:55;;;;;;;5.78;3.25;;;;;;;17.97;39.90;99000.16;5055983;28;20043;-72
2021/09/21 04:12:21;;;;;;;14.35;5.47;;;;;;;18.25;39.30;98999.66;5057416;28;20415;-73
2021/09/21 04:14:47;;;;;;;6.03;2.90;;;;;;;18.30;38.88;98995.25;5040555;28;20088;-75
2021/09/21 04:17:13;;;;;;;6.68;3.13;;;;;;;18.05;39.28;98967.59;5041030;28;20048;-74
2021/09/21 04:19:39;;;;;;;6.85;2.97;;;;;;;18.28;39.43;98988.47;5057307;28;20048;-79
2021/09/21 04:22:06;;;;;;;11.27;2.90;;;;;;;18.11;39.53;98992.78;5042860;28;20043;-75
2021/09/21 04:24:34;;;;;;;8.82;3.15;;;;;;;18.41;39.36;98991.03;5074075;28;20541;-77
2021/09/21 04:27:00;;;;;;;6.03;2.70;;;;;;;18.26;39.86;98987.84;5091929;28;20560;-76
2021/09/21 04:29:26;;;;;;;7.90;2.60;;;;;;;17.92;39.42;98993.75;5073929;28;20056;-75
2021/09/21 04:31:55;;;;;;;6.88;3.08;;;;;;;18.07;39.95;98987.00;5090434;28;20404;-74
2021/09/21 04:34:21;;;;;;;6.82;2.83;;;;;;;17.91;40.25;98974.13;5073860;28;20092;-80
2021/09/21 04:36:47;;;;;;;4.90;2.53;;;;;;;18.18;39.73;98985.44;5073042;28;20142;-76
2021/09/21 04:39:13;;;;;;;8.07;3.28;;;;;;;18.24;39.28;98992.63;5040225;28;20576;-73
2021/09/21 04:41:39;;;;;;;7.72;2.90;;;;;;;17.79;40.17;98992.00;5090454;28;20385;-74
2021/09/21 04:44:06;;;;;;;9.70;3.63;;;;;;;18.20;40.02;98989.56;5090821;28;20500;-75
2021/09/21 04:46:35;;;;;;;12.25;3.25;;;;;;;17.78;40.56;98993.06;5057109;28;20511;-76
2021/09/21 04:49:04;;;;;;;10.02;3.40;;;;;;;18.21;40.08;98993.91;5040542;28;20088;-75
2021/09/21 04:51:31;;;;;;;7.05;2.97;;;;;;;18.09;39.80;98997.53;5056187;28;20046;-75
2021/09/21 04:53:57;;;;;;;8.32;3.40;;;;;;;17.94;39.95;98992.50;5039666;28;20063;-73
2021/09/21 04:56:23;;;;;;;5.28;3.00;;;;;;;18.33;39.13;99002.03;5072903;28;20056;-73
2021/09/21 04:58:49;;;;;;;7.50;3.60;;;;;;;18.13;39.69;98996.03;5090048;28;20058;-74
2021/09/21 05:01:15;;;;;;;12.50;3.40;;;;;;;18.41;38.93;98993.72;5039536;28;20032;-73
2021/09/21 05:03:40;;;;;;;7.43;3.45;;;;;;;18.24;39.39;99000.69;5039723;28;20047;-71
2021/09/21 05:06:07;;;;;;;10.93;3.63;;;;;;;17.79;40.26;98989.31;5059761;28;20128;-74
2021/09/21 05:08:33;;;;;;;8.55;4.30;;;;;;;18.26;39.88;98998.63;5072533;28;20093;-74
2021/09/21 05:10:59;;;;;;;12.82;4.18;;;;;;;18.30;39.64;98978.28;5054838;28;20076;-73
2021/09/21 05:13:24;;;;;;;6.78;3.55;;;;;;;18.53;38.90;99008.06;5039528;28;20170;-74
2021/09/21 05:15:50;;;;;;;8.27;3.90;;;;;;;18.60;38.77;99000.75;5040032;28;20044;-76
2021/09/21 05:18:16;;;;;;;6.78;3.53;;;;;;;18.66;38.74;99002.53;5040105;28;20063;-74
2021/09/21 05:20:42;;;;;;;6.05;2.88;;;;;;;18.50;38.80;98995.06;5061768;28;20039;-72
2021/09/21 05:23:08;;;;;;;11.35;3.45;;;;;;;18.63;38.75;98983.34;5056439;28;20047;-72
2021/09/21 05:25:35;;;;;;;7.22;3.13;;;;;;;17.93;40.13;98990.03;5087099;28;20522;-75
2021/09/21 05:28:02;;;;;;;12.15;3.38;;;;;;;18.26;39.89;98995.91;5092080;28;20563;-75
2021/09/21 05:30:27;;;;;;;7.88;3.30;;;;;;;18.03;40.37;98983.13;5073353;28;20044;-73
2021/09/21 05:32:53;;;;;;;9.98;3.75;;;;;;;18.23;40.00;98999.06;5056146;28;20054;-76
2021/09/21 05:35:19;;;;;;;4.40;3.00;;;;;;;18.43;39.57;98997.81;5072883;28;20048;-73
2021/09/21 05:37:45;;;;;;;8.85;3.15;;;;;;;18.35;39.40;98995.41;5056344;28;20463;-76
2021/09/21 05:40:11;;;;;;;5.22;3.05;;;;;;;18.52;39.31;99006.44;5056400;28;20035;-72
2021/09/21 05:42:37;;;;;;;7.90;3.17;;;;;;;18.27;39.65;98994.88;5056243;28;20113;-76
2021/09/21 05:45:05;;;;;;;13.63;3.35;;;;;;;18.93;39.26;99011.94;5055972;28;20491;-76
2021/09/21 05:47:30;;;;;;;10.57;3.33;;;;;;;18.55;39.21;98997.06;5072931;28;20040;-77
2021/09/21 05:49:56;;;;;;;10.55;3.40;;;;;;;18.42;39.31;98984.59;5055724;28;20123;-76
2021/09/21 05:52:22;;;;;;;9.20;3.10;;;;;;;18.13;39.87;98990.66;5039403;28;20040;-76
2021/09/21 05:54:48;;;;;;;7.50;3.33;;;;;;;17.88;40.85;98995.25;5089732;28;20040;-75
2021/09/21 05:57:14;;;;;;;4.13;2.97;;;;;;;17.96;40.56;98997.66;5089873;28;20094;-74
2021/09/21 05:59:39;;;;;;;4.57;3.38;;;;;;;18.68;39.23;98991.56;5039647;28;20475;-75
2021/09/21 06:02:05;;;;;;;12.40;4.28;;;;;;;18.53;40.12;98991.94;5055615;28;20052;-76
2021/09/21 06:04:33;;;;;;;8.55;3.40;;;;;;;18.54;39.44;98992.75;5089184;28;20156;-75
2021/09/21 06:07:01;;;;;;;9.68;3.28;;;;;;;17.75;40.51;98988.13;5072089;28;20499;-75
2021/09/21 06:09:27;;;;;;;5.47;2.75;;;;;;;17.83;41.06;98978.97;5039334;28;20131;-76
2021/09/21 06:11:52;;;;;;;6.93;3.30;;;;;;;18.06;40.63;98985.38;5055011;28;20135;-75
2021/09/21 06:14:20;;;;;;;6.65;3.50;;;;;;;18.25;40.25;98984.34;5039601;28;20048;-76
2021/09/21 06:16:45;;;;;;;5.07;3.58;;;;;;;18.08;40.40;98985.97;5055507;28;20097;-74
2021/09/21 06:19:11;;;;;;;4.82;2.88;;;;;;;17.43;42.10;98988.34;5039194;28;20138;-77
2021/09/21 06:21:37;;;;;;;5.18;2.72;;;;;;;17.51;41.55;98972.00;5055511;28;20049;-75
2021/09/21 06:24:03;;;;;;;5.30;3.17;;;;;;;18.08;40.69;98990.53;5038874;28;20066;-76
2021/09/21 06:26:32;;;;;;;8.73;2.70;;;;;;;18.17;40.22;98978.44;5039143;28;20044;-75
2021/09/21 06:29:01;;;;;;;5.35;3.28;;;;;;;18.62;39.91;98982.50;5072544;28;20094;-76
2021/09/21 06:31:28;;;;;;;4.82;2.97;;;;;;;17.51;41.51;99002.38;5090396;28;20584;-76
2021/09/21 06:33:54;;;;;;;8.40;3.72;;;;;;;18.16;41.02;98990.22;5055325;28;20134;-75
2021/09/21 06:36:20;;;;;;;6.30;3.80;;;;;;;18.54;40.20;98974.75;5055384;28;20048;-75
2021/09/21 06:38:45;;;;;;;9.55;4.72;;;;;;;18.42;39.98;98988.13;5038617;28;20089;-74
2021/09/21 06:41:11;;;;;;;3.75;3.10;;;;;;;16.87;43.10;98992.81;5055134;28;20040;-76
2021/09/21 06:43:37;;;;;;;4.50;3.13;;;;;;;17.94;41.12;98995.19;5034750;28;20037;-75
2021/09/21 06:46:03;;;;;;;7.40;3.58;;;;;;;18.22;40.63;99002.81;5041571;28;20238;-76
2021/09/21 06:48:29;;;;;;;3.20;2.67;;;;;;;18.20;40.65;98996.81;5063752;28;20046;-76
2021/09/21 06:50:54;;;;;;;4.50;2.80;;;;;;;18.05;40.42;99005.22;5052840;28;20088;-75
2021/09/21 06:53:20;;;;;;;3.25;2.83;;;;;;;18.49;40.54;99004.19;5037639;28;20093;-76
2021/09/21 06:55:47;;;;;;;5.28;2.67;;;;;;;18.06;40.91;98990.75;5038799;28;20104;-74
2021/09/21 06:58:12;;;;;;;7.63;2.78;;;;;;;18.11;40.64;99008.91;5060700;28;20036;-71
2021/09/21 07:00:43;;;;;;;3.55;2.03;;;;;;;17.67;41.29;98984.88;5047780;28;20047;-78
2021/09/21 07:03:09;;;;;;;4.90;3.20;;;;;;;18.19;40.77;99004.03;5077391;28;20056;-77
2021/09/21 07:05:35;;;;;;;5.10;3.60;;;;;;;18.71;39.91;98996.50;5028850;28;20036;-78
2021/09/21 07:08:01;;;;;;;5.10;3.10;;;;;;;18.06;40.80;99012.25;5075507;28;20122;-75
2021/09/21 07:10:26;;;;;;;3.58;2.67;;;;;;;17.63;41.36;98973.78;5037172;28;20039;-76
2021/09/21 07:12:52;;;;;;;6.72;3.78;;;;;;;18.37;40.54;99004.09;5067566;28;20071;-75
2021/09/21 07:15:22;;;;;;;5.40;2.40;;;;;;;18.09;41.26;99013.66;5088994;28;20055;-77
2021/09/21 07:17:53;;;;;;;4.00;2.80;;;;;;;17.88;41.93;99004.13;5075962;28;20123;-75
2021/09/21 07:20:25;;;;;;;5.10;2.40;;;;;;;17.63;42.11;98995.25;5059019;28;20050;-75
2021/09/21 07:22:52;;;;;;;3.45;2.05;;;;;;;17.82;41.40;99036.44;5071758;28;20431;-72
2021/09/21 07:25:18;;;;;;;3.97;2.20;;;;;;;17.50;41.95;99011.44;5068516;28;20040;-74
2021/09/21 07:27:45;;;;;;;4.05;2.90;;;;;;;17.78;41.70;99019.94;5071782;28;20052;-74
2021/09/21 07:30:12;;;;;;;11.75;3.00;;;;;;;18.22;41.05;99000.13;5055649;28;20048;-70
2021/09/21 07:32:38;;;;;;;5.45;3.45;;;;;;;18.42;40.03;98993.50;5055302;28;20036;-71
2021/09/21 07:35:05;;;;;;;6.75;3.67;;;;;;;18.41;40.66;99007.16;5079677;28;20040;-71
2021/09/21 07:37:31;;;;;;;6.20;2.90;;;;;;;18.35;40.25;99013.41;5056101;28;20082;-71
2021/09/21 07:39:57;;;;;;;7.47;3.20;;;;;;;17.82;41.03;98988.09;5048427;28;20127;-70
2021/09/21 07:42:23;;;;;;;3.85;3.03;;;;;;;18.38;41.02;99004.91;5081219;28;20044;-70
2021/09/21 07:44:48;;;;;;;5.55;2.90;;;;;;;18.50;40.16;99008.50;5046480;28;20105;-70
2021/09/21 07:47:15;;;;;;;4.10;2.60;;;;;;;18.00;41.62;99005.06;5066750;28;20487;-69
2021/09/21 07:49:41;;;;;;;4.88;3.05;;;;;;;18.39;40.57;99014.63;5086564;28;20043;-69
2021/09/21 07:52:07;;;;;;;4.13;2.55;;;;;;;18.94;39.55;99012.75;5071390;28;20090;-71
2021/09/21 07:54:32;;;;;;;5.45;2.58;;;;;;;17.77;41.73;99007.56;5085126;28;20048;-70
2021/09/21 07:56:58;;;;;;;5.63;3.40;;;;;;;18.40;40.51;98986.72;5057823;28;20127;-70
2021/09/21 07:59:24;;;;;;;7.07;3.08;;;;;;;18.92;39.50;99004.06;5091522;28;20051;-70
2021/09/21 08:01:50;;;;;;;5.65;3.08;;;;;;;18.59;40.25;99000.97;5091322;28;20044;-72
2021/09/21 08:04:16;;;;;;;5.03;3.33;;;;;;;18.90;39.16;98996.22;5041253;28;20040;-69
2021/09/21 08:06:42;;;;;;;3.95;2.95;;;;;;;18.40;40.19;99000.94;5057830;28;20570;-68
2021/09/21 08:09:07;;;;;;;5.65;3.03;;;;;;;19.07;39.24;99005.31;5041239;28;20048;-71
2021/09/21 08:11:34;;;;;;;7.88;4.07;;;;;;;19.01;39.32;99000.84;5057597;28;20043;-69
2021/09/21 08:14:04;;;;;;;8.45;3.40;;;;;;;19.01;39.51;99005.41;5074328;28;20059;-70
2021/09/21 08:16:33;;;;;;;5.00;3.22;;;;;;;19.36;38.73;98996.44;5092739;28;20051;-70
2021/09/21 08:18:59;;;;;;;6.30;3.60;;;;;;;19.22;38.56;99003.03;5058747;28;20047;-69
2021/09/21 08:21:26;;;;;;;5.53;3.13;;;;;;;18.56;40.01;98990.69;5068114;28;20040;-69
2021/09/21 08:23:52;;;;;;;5.60;3.45;;;;;;;19.03;39.94;98987.16;5072726;28;20385;-69
2021/09/21 08:26:20;;;;;;;6.97;3.38;;;;;;;19.13;39.55;99007.09;5091058;28;20105;-69
2021/09/21 08:28:46;;;;;;;4.47;3.15;;;;;;;19.02;39.70;99007.06;5090517;28;20040;-68
2021/09/21 08:31:11;;;;;;;6.82;3.50;;;;;;;19.41;38.76;99001.97;5057450;28;20115;-70
2021/09/21 08:33:38;;;;;;;5.35;2.83;;;;;;;18.55;39.93;98989.84;5074267;28;20059;-69
2021/09/21 08:36:04;;;;;;;6.20;3.63;;;;;;;19.38;38.71;98997.06;5073577;28;20040;-69
2021/09/21 08:38:30;;;;;;;6.03;3.42;;;;;;;19.39;38.60;98987.13;5032828;28;20028;-69
2021/09/21 08:40:56;;;;;;;4.63;3.05;;;;;;;19.02;38.94;98997.09;5037636;28;20144;-69
2021/09/21 08:43:22;;;;;;;6.68;3.40;;;;;;;18.88;38.92;99016.34;5039816;28;20066;-69
2021/09/21 08:45:48;;;;;;;4.68;3.22;;;;;;;18.94;39.04;98985.84;5073247;28;20055;-69
2021/09/21 08:48:13;;;;;;;5.13;3.30;;;;;;;18.98;39.16;98993.25;5053507;28;20041;-68
2021/09/21 08:50:39;;;;;;;7.50;3.22;;;;;;;18.99;39.18;99005.63;5037006;28;20507;-69
2021/09/21 08:53:05;;;;;;;5.03;3.80;;;;;;;18.99;39.21;99004.84;5036612;28;20056;-69
2021/09/21 08:55:31;;;;;;;5.40;3.70;;;;;;;19.48;37.89;99013.47;5022702;28;20564;-69
2021/09/21 08:57:58;;;;;;;8.95;4.13;;;;;;;19.74;38.03;99015.75;5069791;28;20071;-69
2021/09/21 09:00:26;;;;;;;5.53;3.65;;;;;;;19.09;39.15;98962.88;5069664;28;20482;-69
2021/09/21 09:03:23;;;;;;;4.95;3.95;;;;;;;20.03;37.75;99014.03;5036143;28;20044;-70
2021/09/21 09:05:51;;;;;;;6.00;4.00;;;;;;;19.93;37.94;99008.41;5074952;28;20035;-69
2021/09/21 09:08:35;;;;;;;4.78;3.85;;;;;;;19.73;38.09;99014.13;5080113;28;20063;-69
2021/09/21 09:11:18;;;;;;;6.40;4.63;;;;;;;20.01;37.41;99025.06;5035901;28;20051;-69
2021/09/21 09:13:46;;;;;;;7.07;4.30;;;;;;;19.33;39.14;98999.59;5069191;28;20096;-68
2021/09/21 09:16:17;;;;;;;6.00;4.38;;;;;;;19.42;38.74;98994.72;5036485;28;20118;-69
2021/09/21 09:18:46;;;;;;;8.68;4.05;;;;;;;19.05;39.67;99007.41;5069508;28;20094;-68
2021/09/21 09:21:17;;;;;;;8.13;4.20;;;;;;;19.57;38.57;98998.59;5074398;28;20447;-69
2021/09/21 09:23:48;;;;;;;8.02;3.95;;;;;;;20.00;37.76;99001.84;5053856;28;20617;-68
2021/09/21 09:26:17;;;;;;;7.72;3.85;;;;;;;20.02;37.58;99009.69;5070419;28;20535;-68
2021/09/21 09:28:43;;;;;;;5.53;4.38;;;;;;;19.37;38.25;99010.75;5035983;28;20056;-69
2021/09/21 09:31:08;;;;;;;10.30;4.47;;;;;;;19.56;37.94;99007.75;5069062;28;20036;-69
2021/09/21 09:33:36;;;;;;;9.98;4.90;;;;;;;19.45;37.65;99019.31;5070280;28;20488;-69
2021/09/21 09:36:02;;;;;;;8.20;5.18;;;;;;;19.62;38.16;99012.22;5075915;28;20059;-69
2021/09/21 09:38:28;;;;;;;10.35;4.65;;;;;;;19.91;37.11;99027.50;5071942;28;20047;-70
2021/09/21 09:40:55;;;;;;;9.00;5.50;;;;;;;20.24;37.20;99028.84;5071668;28;20569;-69
2021/09/21 09:43:26;;;;;;;9.13;5.07;;;;;;;20.29;36.90;99023.56;5072041;28;20036;-69
2021/09/21 09:45:54;;;;;;;7.10;3.95;;;;;;;19.39;38.10;99031.00;5088074;28;20519;-69
2021/09/21 09:48:22;;;;;;;10.73;4.85;;;;;;;19.32;38.67;99027.59;5079003;28;20047;-69
2021/09/21 09:50:52;;;;;;;7.28;4.65;;;;;;;19.43;38.71;99034.06;5066009;28;20090;-69
2021/09/21 09:53:24;;;;;;;9.98;4.68;;;;;;;19.82;38.23;99033.44;5080660;28;20522;-69
2021/09/21 09:55:55;;;;;;;7.15;5.05;;;;;;;19.86;38.03;99040.88;5055546;28;20066;-68
2021/09/21 09:58:21;;;;;;;;;;;;;;;20.49;36.33;99032.13;5059934;28;20040;-67
2021/09/21 10:00:49;;;;;;;10.27;5.18;;;;;;;19.24;38.79;99022.50;5052026;28;19920;-70
2021/09/21 10:03:15;;;;;;;11.35;4.78;;;;;;;19.55;38.01;99030.38;5077367;28;20037;-69
2021/09/21 10:05:41;;;;;;;10.68;4.63;;;;;;;19.79;37.66;99015.88;5029882;28;20044;-69
2021/09/21 10:08:08;;;;;;;6.88;4.53;;;;;;;20.06;37.22;99022.47;5089234;28;20055;-69
2021/09/21 10:10:36;;;;;;;6.75;4.30;;;;;;;19.29;38.33;99027.22;5088879;28;20483;-70
2021/09/21 10:13:06;;;;;;;5.72;3.92;;;;;;;19.68;38.29;99035.53;5071829;28;20060;-70
2021/09/21 10:15:32;;;;;;;8.00;4.03;;;;;;;18.99;39.11;99026.38;5067044;28;20043;-67
2021/09/21 10:17:59;;;;;;;7.75;4.78;;;;;;;19.27;38.53;99007.72;5064930;28;20576;-70
2021/09/21 10:20:40;;;;;;;11.40;4.95;;;;;;;20.25;37.20;99038.59;5047852;28;20040;-69
2021/09/21 10:23:09;;;;;;;14.30;5.57;;;;;;;19.98;37.53;99047.09;5071142;28;20041;-68
2021/09/21 10:25:38;;;;;;;9.25;5.90;;;;;;;20.14;37.48;99039.41;5069864;28;20135;-69
2021/09/21 10:28:37;;;;;;;9.90;5.75;;;;;;;20.63;36.31;99047.00;5034483;28;20245;-70
2021/09/21 10:31:10;;;;;;;8.13;5.05;;;;;;;20.02;38.14;99047.44;5034493;28;20044;-70
2021/09/21 10:33:36;;;;;;;8.73;5.53;;;;;;;19.21;38.30;99014.03;5079455;28;20048;-69
2021/09/21 10:36:02;;;;;;;11.63;6.05;;;;;;;19.14;38.99;99029.47;5031240;28;20102;-69
2021/09/21 10:38:28;;;;;;;13.52;5.80;;;;;;;19.00;38.89;99042.28;5068364;28;20514;-69
2021/09/21 10:41:02;;;;;;;10.18;6.32;;;;;;;19.75;38.28;99032.75;5051019;28;20044;-70
2021/09/21 10:43:34;;;;;;;10.15;6.45;;;;;;;20.05;37.97;99039.72;5051033;28;20118;-69
2021/09/21 10:46:12;;;;;;;8.63;5.68;;;;;;;20.05;37.86;99039.72;5051106;28;20051;-69
2021/09/21 10:48:40;;;;;;;14.50;8.05;;;;;;;20.14;37.42;99040.22;5034351;28;20040;-69
2021/09/21 10:51:08;;;;;;;11.45;5.85;;;;;;;20.04;37.48;99045.31;5075390;28;20132;-70
2021/09/21 10:53:34;;;;;;;9.38;5.13;;;;;;;19.12;38.54;99045.03;5070127;28;20055;-71
2021/09/21 10:56:11;;;;;;;14.65;5.63;;;;;;;20.29;37.40;99050.53;5054464;28;20075;-70
2021/09/21 10:58:38;;;;;;;9.00;5.53;;;;;;;19.18;38.80;99047.63;5038580;28;20135;-70
2021/09/21 11:01:06;;;;;;;10.38;5.72;;;;;;;19.93;37.69;99046.97;5070019;28;20052;-81
2021/09/21 11:03:35;;;;;;;16.65;5.55;;;;;;;20.02;37.74;99042.88;5038616;28;20040;-70
2021/09/21 11:06:01;;;;;;;10.43;5.57;;;;;;;19.56;37.60;99050.03;5077235;28;20040;-72
2021/09/21 11:08:32;;;;;;;12.63;6.70;;;;;;;20.12;37.49;99045.00;5086645;28;20515;-70
2021/09/21 11:11:01;;;;;;;10.32;6.93;;;;;;;19.94;37.61;99051.28;5075787;28;20129;-70
2021/09/21 11:13:34;;;;;;;10.25;5.38;;;;;;;20.22;36.92;99033.66;5091028;28;20443;-71
2021/09/21 11:16:05;;;;;;;8.52;5.45;;;;;;;20.15;37.30;99043.72;5091252;28;20073;-68
2021/09/21 11:18:32;;;;;;;10.98;4.72;;;;;;;19.58;37.80;99051.44;5058753;28;20093;-69
2021/09/21 11:21:04;;;;;;;6.88;4.53;;;;;;;19.72;37.79;99042.13;5075171;28;20055;-71
2021/09/21 11:23:32;;;;;;;6.55;5.03;;;;;;;20.03;37.59;99046.41;5075037;28;20094;-69
2021/09/21 11:26:00;;;;;;;5.82;4.60;;;;;;;20.35;36.49;99045.03;5069292;28;20074;-70
2021/09/21 11:28:30;;;;;;;9.93;4.45;;;;;;;20.44;36.82;99045.47;5057971;28;20573;-69
2021/09/21 11:30:57;;;;;;;6.43;4.57;;;;;;;20.42;36.48;99048.41;5057844;28;20032;-70
2021/09/21 11:33:25;;;;;;;8.80;4.32;;;;;;;20.49;36.75;99048.31;5074625;28;20055;-70
2021/09/21 11:35:56;;;;;;;5.82;4.05;;;;;;;20.35;36.55;99041.50;5090960;28;20051;-70
2021/09/21 11:38:23;;;;;;;8.07;3.85;;;;;;;20.31;36.32;99043.88;5074792;28;20518;-68
2021/09/21 11:40:51;;;;;;;7.28;3.95;;;;;;;20.20;36.35;99042.00;5089902;28;20131;-70
2021/09/21 11:43:17;;;;;;;7.22;4.45;;;;;;;19.96;36.70;99024.09;5057690;28;20511;-69